Time;durP1;ratioP1;P1;durP2;ratioP2;P2;SDS_P1;SDS_P2;PMS_P1;PMS_P2;Temp;Humidity;BMP_temperature;BMP_pressure;BME280_temperature;BME280_humidity;BME280_pressure;Samples;Min_cycle;Max_cycle;Signal;HPM_P1;HPM_P2
2022/04/28 00:00:15;;;;;;;6.13;2.95;;;12.40;39.80;;;;;;5053859;28;20223;-33
2022/04/28 00:02:42;;;;;;;4.68;3.20;;;12.40;39.70;;;;;;5053582;28;20208;-33
2022/04/28 00:05:09;;;;;;;5.22;3.45;;;12.30;39.70;;;;;;5053662;28;20266;-33
2022/04/28 00:07:35;;;;;;;9.80;3.63;;;12.30;39.90;;;;;;5052716;28;20227;-33
2022/04/28 00:10:02;;;;;;;7.22;3.85;;;12.20;39.60;;;;;;5053277;28;20177;-32
2022/04/28 00:12:27;;;;;;;3.90;2.70;;;12.10;39.70;;;;;;5053399;28;20177;-33
2022/04/28 00:14:53;;;;;;;3.90;2.90;;;12.10;39.60;;;;;;5053367;28;20666;-32
2022/04/28 00:17:19;;;;;;;4.50;2.92;;;12.00;39.60;;;;;;5053541;28;20424;-32
2022/04/28 00:19:45;;;;;;;4.73;3.40;;;12.00;40.00;;;;;;5053318;28;20635;-32
2022/04/28 00:22:11;;;;;;;6.97;4.17;;;11.90;39.90;;;;;;5053006;28;20177;-33
2022/04/28 00:24:37;;;;;;;2.75;2.20;;;11.80;39.90;;;;;;5053079;28;20184;-32
2022/04/28 00:27:02;;;;;;;5.97;3.50;;;11.80;39.90;;;;;;5053396;28;20193;-32
2022/04/28 00:29:28;;;;;;;4.60;3.47;;;11.70;40.00;;;;;;5053053;28;20243;-32
2022/04/28 00:31:54;;;;;;;3.90;3.03;;;11.70;40.00;;;;;;5052863;28;20173;-32
2022/04/28 00:34:19;;;;;;;5.33;3.50;;;11.70;40.00;;;;;;5053006;28;20174;-32
2022/04/28 00:36:45;;;;;;;4.47;3.33;;;11.70;39.80;;;;;;5052842;28;20205;-33
2022/04/28 00:39:11;;;;;;;6.97;3.40;;;11.60;39.70;;;;;;5052730;28;20177;-32
2022/04/28 00:41:36;;;;;;;4.47;3.07;;;11.60;39.70;;;;;;5052590;28;20176;-32
2022/04/28 00:44:02;;;;;;;4.13;2.67;;;11.60;39.70;;;;;;5052827;28;20179;-32
2022/04/28 00:46:28;;;;;;;8.50;3.90;;;11.50;39.70;;;;;;5052816;28;20242;-32
2022/04/28 00:51:40;;;;;;;4.43;4.00;;;11.30;39.90;;;;;;5052669;28;20207;-32
2022/04/28 00:54:06;;;;;;;4.28;2.78;;;11.20;40.10;;;;;;5052432;28;20791;-32
2022/04/28 00:56:32;;;;;;;5.50;3.10;;;11.20;40.10;;;;;;5052761;28;20197;-32
2022/04/28 00:59:02;;;;;;;4.47;3.00;;;11.10;40.20;;;;;;5052589;28;20192;-32
2022/04/28 01:01:31;;;;;;;5.78;2.72;;;11.10;40.00;;;;;;5052398;28;20177;-32
2022/04/28 01:03:57;;;;;;;4.40;2.72;;;12.00;40.40;;;;;;5052422;28;20292;-32
2022/04/28 01:06:23;;;;;;;4.30;3.20;;;11.10;40.30;;;;;;5052312;28;20276;-32
2022/04/28 01:08:49;;;;;;;7.00;4.00;;;11.00;40.90;;;;;;5052311;28;20962;-32
2022/04/28 01:11:18;;;;;;;4.05;3.20;;;11.00;40.40;;;;;;5052327;28;20404;-32
2022/04/28 01:13:44;;;;;;;5.18;3.00;;;10.90;40.60;;;;;;5052313;28;20172;-32
2022/04/28 01:16:12;;;;;;;3.95;2.97;;;10.90;40.40;;;;;;5052211;28;20677;-32
2022/04/28 01:18:38;;;;;;;4.72;2.92;;;10.90;40.40;;;;;;5052192;28;20181;-32
2022/04/28 01:21:08;;;;;;;4.50;3.17;;;10.80;40.30;;;;;;5052107;28;20179;-32
2022/04/28 01:23:35;;;;;;;7.03;5.05;;;10.80;40.20;;;;;;5052141;28;20196;-32
2022/04/28 01:26:02;;;;;;;10.68;4.55;;;10.70;40.60;;;;;;5051992;28;20629;-32
2022/04/28 01:28:29;;;;;;;3.50;2.63;;;10.70;40.80;;;;;;5052090;28;20171;-32
2022/04/28 01:30:55;;;;;;;4.47;2.70;;;10.60;41.10;;;;;;5051789;28;20170;-32
2022/04/28 01:33:20;;;;;;;5.50;3.20;;;10.60;41.20;;;;;;5051983;28;20173;-32
2022/04/28 01:35:46;;;;;;;5.73;3.80;;;10.50;41.10;;;;;;5052165;28;20605;-32
2022/04/28 01:38:12;;;;;;;4.27;3.70;;;10.50;40.90;;;;;;5051751;28;20287;-32
2022/04/28 01:40:38;;;;;;;6.17;3.83;;;10.40;41.30;;;;;;5051713;28;20407;-32
2022/04/28 01:43:03;;;;;;;4.30;3.10;;;10.40;41.20;;;;;;5051834;28;20396;-32
2022/04/28 01:45:29;;;;;;;4.40;2.97;;;10.30;41.30;;;;;;5051865;28;20253;-32
2022/04/28 01:47:55;;;;;;;5.30;3.50;;;10.30;40.90;;;;;;5051688;28;20193;-32
2022/04/28 01:50:21;;;;;;;6.23;3.70;;;10.30;41.10;;;;;;5051740;28;20457;-32
2022/04/28 01:55:31;;;;;;;4.82;3.10;;;10.20;41.50;;;;;;5051719;28;20457;-32
2022/04/28 01:57:58;;;;;;;11.50;3.13;;;10.20;41.30;;;;;;5051954;28;20195;-32
2022/04/28 02:00:23;;;;;;;5.70;3.88;;;10.10;41.60;;;;;;5054241;28;20933;-32
2022/04/28 02:02:49;;;;;;;3.60;2.87;;;10.00;41.80;;;;;;5055759;28;20205;-32
2022/04/28 02:05:16;;;;;;;5.17;2.87;;;10.00;41.70;;;;;;5055797;28;20773;-32
2022/04/28 02:07:42;;;;;;;5.15;3.03;;;10.00;41.30;;;;;;5055640;28;20686;-32
2022/04/28 02:10:09;;;;;;;6.47;3.47;;;10.00;41.30;;;;;;5055896;28;20180;-32
2022/04/28 02:12:34;;;;;;;4.55;3.45;;;10.00;41.30;;;;;;5055528;28;20180;-32
2022/04/28 02:15:00;;;;;;;5.30;3.50;;;10.00;41.30;;;;;;5055589;28;20282;-32
2022/04/28 02:17:27;;;;;;;3.60;2.80;;;10.00;41.00;;;;;;5055574;28;20181;-32
2022/04/28 02:19:54;;;;;;;4.80;4.20;;;9.90;40.80;;;;;;5055589;28;20252;-32
2022/04/28 02:22:20;;;;;;;4.50;2.78;;;10.00;40.80;;;;;;5055312;28;20197;-32
2022/04/28 02:24:47;;;;;;;4.47;3.50;;;10.00;40.80;;;;;;5055406;28;20172;-32
2022/04/28 02:27:13;;;;;;;4.30;3.47;;;9.90;40.60;;;;;;5055582;28;20284;-32
2022/04/28 02:29:39;;;;;;;6.03;3.08;;;9.90;40.80;;;;;;5055385;28;20654;-32
2022/04/28 02:32:05;;;;;;;3.50;2.80;;;9.90;41.00;;;;;;5055153;28;20184;-32
2022/04/28 02:34:31;;;;;;;3.88;3.33;;;9.90;40.90;;;;;;5055127;28;20205;-32
2022/04/28 02:36:57;;;;;;;6.47;3.93;;;9.90;40.70;;;;;;5055082;28;20266;-32
2022/04/28 02:39:23;;;;;;;5.30;3.30;;;9.90;40.70;;;;;;5055080;28;20211;-32
2022/04/28 02:41:49;;;;;;;4.30;3.43;;;9.90;40.80;;;;;;5054970;28;20161;-32
2022/04/28 02:44:14;;;;;;;4.20;3.38;;;9.80;40.60;;;;;;5054974;28;20399;-32
2022/04/28 02:46:48;;;;;;;3.90;3.50;;;9.80;40.60;;;;;;5055293;28;20232;-32
2022/04/28 02:49:15;;;;;;;3.97;2.05;;;9.80;40.60;;;;;;5055052;28;20707;-32
2022/04/28 02:51:41;;;;;;;8.25;3.20;;;9.80;40.70;;;;;;5055718;28;20192;-32
2022/04/28 02:54:07;;;;;;;7.22;4.03;;;9.70;40.70;;;;;;5055707;28;20207;-33
2022/04/28 02:56:33;;;;;;;5.07;3.20;;;9.70;41.40;;;;;;5055755;28;20201;-32
2022/04/28 02:58:59;;;;;;;4.35;2.85;;;9.70;41.00;;;;;;5054706;28;20422;-32
2022/04/28 03:01:25;;;;;;;3.40;2.20;;;9.70;40.90;;;;;;5054537;28;20262;-32
2022/04/28 03:03:51;;;;;;;4.20;3.00;;;9.70;40.70;;;;;;5054769;28;20924;-32
2022/04/28 03:11:48;;;;;;;5.72;2.95;;;9.60;41.10;;;;;;5054235;28;20188;-32
2022/04/28 03:14:14;;;;;;;4.00;2.97;;;9.50;41.10;;;;;;5054466;28;20169;-32
2022/04/28 03:16:39;;;;;;;3.73;2.43;;;9.50;41.10;;;;;;5054543;28;20195;-32
2022/04/28 03:19:05;;;;;;;3.87;2.67;;;9.50;41.10;;;;;;5054500;28;20410;-32
2022/04/28 03:21:32;;;;;;;4.60;3.50;;;9.40;41.00;;;;;;5054249;28;20793;-32
2022/04/28 03:23:57;;;;;;;4.72;3.45;;;9.40;41.00;;;;;;5054546;28;20483;-32
2022/04/28 03:26:24;;;;;;;6.30;3.47;;;9.40;40.90;;;;;;5054399;28;20292;-32
2022/04/28 03:28:49;;;;;;;5.75;2.60;;;9.30;40.90;;;;;;5053902;28;20195;-32
2022/04/28 03:31:15;;;;;;;3.30;2.97;;;9.30;40.80;;;;;;5053838;28;20180;-32
2022/04/28 03:33:41;;;;;;;5.70;3.20;;;9.30;41.50;;;;;;5054498;28;20180;-32
2022/04/28 03:38:51;;;;;;;3.78;2.70;;;9.30;40.70;;;;;;5054400;28;20979;-32
2022/04/28 03:41:17;;;;;;;5.53;3.40;;;9.30;40.90;;;;;;5053799;28;20162;-32
2022/04/28 03:43:44;;;;;;;6.20;3.40;;;9.20;40.90;;;;;;5054094;28;20532;-32
2022/04/28 03:46:15;;;;;;;5.88;3.22;;;9.20;41.30;;;;;;5053909;28;20170;-32
2022/04/28 03:48:41;;;;;;;3.15;2.55;;;9.20;41.00;;;;;;5053828;28;20161;-32
2022/04/28 03:51:07;;;;;;;5.47;4.18;;;9.20;41.00;;;;;;5053882;28;20211;-32
2022/04/28 03:53:33;;;;;;;5.27;2.93;;;9.20;41.00;;;;;;5053962;28;20177;-32
2022/04/28 03:55:59;;;;;;;6.40;4.23;;;9.30;41.40;;;;;;5053522;28;20204;-32
2022/04/28 03:58:25;;;;;;;5.85;3.80;;;9.30;42.20;;;;;;5053760;28;20290;-32
2022/04/28 04:00:51;;;;;;;5.55;3.88;;;9.20;42.20;;;;;;5053339;28;20234;-32
2022/04/28 04:03:19;;;;;;;26.52;4.22;;;9.30;42.50;;;;;;5053862;28;20180;-32
2022/04/28 04:05:45;;;;;;;14.32;4.57;;;9.40;42.20;;;;;;5053755;28;20192;-32
2022/04/28 04:08:12;;;;;;;4.88;3.45;;;9.40;42.30;;;;;;5053482;28;20201;-32
2022/04/28 04:10:37;;;;;;;7.43;4.70;;;9.40;42.40;;;;;;5053437;28;20169;-32
2022/04/28 04:13:03;;;;;;;11.13;4.83;;;9.50;42.90;;;;;;5053466;28;20169;-32
2022/04/28 04:15:29;;;;;;;6.27;3.87;;;9.50;42.80;;;;;;5053253;28;20746;-32
2022/04/28 04:17:55;;;;;;;4.90;3.53;;;9.60;42.70;;;;;;5053114;28;20485;-32
2022/04/28 04:20:21;;;;;;;4.70;4.03;;;9.60;42.70;;;;;;5053223;28;20436;-32
2022/04/28 04:22:46;;;;;;;8.83;3.50;;;9.70;43.20;;;;;;5052469;28;20166;-32
2022/04/28 04:25:12;;;;;;;6.67;4.43;;;9.70;43.20;;;;;;5053427;28;20408;-32
2022/04/28 04:27:38;;;;;;;15.30;3.63;;;9.80;43.00;;;;;;5053105;28;20185;-32
2022/04/28 04:32:17;;;;;;;6.23;4.20;;;9.80;42.70;;;;;;5053037;28;20170;-32
2022/04/28 04:32:50;;;;;;;5.80;3.45;;;9.90;43.00;;;;;;5052855;28;20173;-32
2022/04/28 04:35:17;;;;;;;7.53;3.45;;;9.90;43.30;;;;;;5052892;28;20203;-32
2022/04/28 04:37:43;;;;;;;5.15;2.30;;;10.00;43.10;;;;;;5052712;28;20235;-32
2022/04/28 04:40:11;;;;;;;5.78;4.45;;;10.00;43.10;;;;;;5052817;28;20166;-32
2022/04/28 04:42:37;;;;;;;6.68;4.68;;;10.00;42.90;;;;;;5052905;28;20257;-32
2022/04/28 04:45:04;;;;;;;5.20;4.03;;;10.10;43.00;;;;;;5052621;28;20718;-32
2022/04/28 04:47:29;;;;;;;5.55;3.83;;;10.10;43.10;;;;;;5053104;28;20193;-32
2022/04/28 04:49:55;;;;;;;7.23;4.67;;;10.20;43.00;;;;;;5052710;28;20208;-32
2022/04/28 04:52:21;;;;;;;5.80;3.63;;;10.20;43.10;;;;;;5052503;28;20188;-32
2022/04/28 04:54:46;;;;;;;6.70;3.37;;;10.30;43.00;;;;;;5052305;28;20200;-32
2022/04/28 04:57:12;;;;;;;7.80;4.47;;;10.30;43.20;;;;;;5052521;28;20239;-32
2022/04/28 04:59:38;;;;;;;5.50;3.60;;;10.40;43.00;;;;;;5052691;28;20197;-32
2022/04/28 05:02:04;;;;;;;5.60;3.50;;;10.40;43.10;;;;;;5052357;28;20170;-32
2022/04/28 05:04:29;;;;;;;4.53;3.33;;;10.40;43.10;;;;;;5052544;28;20173;-32
2022/04/28 05:06:55;;;;;;;7.53;3.50;;;10.50;43.00;;;;;;5052262;28;20613;-32
2022/04/28 05:09:21;;;;;;;4.80;3.57;;;10.60;43.00;;;;;;5052714;28;20177;-32
2022/04/28 05:11:47;;;;;;;5.30;4.03;;;10.70;42.90;;;;;;5052048;28;20180;-32
2022/04/28 05:14:12;;;;;;;7.37;4.07;;;10.80;43.00;;;;;;5052174;28;20231;-32
2022/04/28 05:16:38;;;;;;;9.33;5.20;;;10.90;43.20;;;;;;5052118;28;20438;-32
2022/04/28 05:19:04;;;;;;;4.87;3.90;;;11.10;43.50;;;;;;5052411;28;20272;-32
2022/04/28 05:21:29;;;;;;;6.40;4.00;;;11.10;43.50;;;;;;5052050;28;20250;-32
2022/04/28 05:23:55;;;;;;;5.57;3.80;;;11.20;43.60;;;;;;5052418;28;20264;-32
2022/04/28 05:26:21;;;;;;;6.03;4.20;;;11.30;43.50;;;;;;5052050;28;20185;-32
2022/04/28 05:28:47;;;;;;;8.50;4.80;;;11.40;43.40;;;;;;5052035;28;20407;-32
2022/04/28 05:31:12;;;;;;;6.07;4.13;;;11.50;43.30;;;;;;5051896;28;20204;-32
2022/04/28 05:33:41;;;;;;;7.93;4.73;;;11.90;43.40;;;;;;5051240;28;20179;-32
2022/04/28 05:36:09;;;;;;;6.43;4.15;;;11.70;43.00;;;;;;5051233;28;20211;-32
2022/04/28 05:38:39;;;;;;;12.13;4.85;;;11.70;43.00;;;;;;5052035;28;20614;-32
2022/04/28 05:41:05;;;;;;;4.93;3.63;;;11.80;42.90;;;;;;5052496;28;20193;-32
2022/04/28 05:46:15;;;;;;;4.45;3.42;;;12.00;42.90;;;;;;5052034;28;20238;-32
2022/04/28 05:48:41;;;;;;;6.43;4.30;;;12.20;42.60;;;;;;5052018;28;20568;-32
2022/04/28 05:51:07;;;;;;;6.30;4.10;;;12.30;42.70;;;;;;5051565;28;20226;-32
2022/04/28 05:53:32;;;;;;;6.30;4.90;;;12.30;42.40;;;;;;5052507;28;20173;-32
2022/04/28 05:55:58;;;;;;;8.10;4.60;;;12.40;42.50;;;;;;5051493;28;20196;-32
2022/04/28 05:58:24;;;;;;;6.23;4.63;;;12.50;42.30;;;;;;5051661;28;20404;-32
2022/04/28 06:00:50;;;;;;;7.07;4.60;;;12.60;42.00;;;;;;5051491;28;20642;-32
2022/04/28 06:03:15;;;;;;;5.10;3.40;;;12.60;41.80;;;;;;5051743;28;20173;-32
2022/04/28 06:05:41;;;;;;;6.87;4.80;;;12.70;42.00;;;;;;5051905;28;20180;-32
2022/04/28 06:08:07;;;;;;;5.70;4.40;;;12.90;41.90;;;;;;5052658;28;20236;-32
2022/04/28 06:10:33;;;;;;;7.15;4.97;;;13.10;41.70;;;;;;5053035;28;20169;-32
2022/04/28 06:12:59;;;;;;;7.17;4.60;;;13.20;41.30;;;;;;5052382;28;20173;-32
2022/04/28 06:15:24;;;;;;;7.57;4.17;;;13.40;41.20;;;;;;5051568;28;20260;-33
2022/04/28 06:17:50;;;;;;;7.87;4.33;;;13.50;41.00;;;;;;5051715;28;20192;-32
2022/04/28 06:20:16;;;;;;;6.20;4.20;;;13.60;40.60;;;;;;5051316;28;20392;-32
2022/04/28 06:22:42;;;;;;;6.07;4.20;;;13.70;40.50;;;;;;5051512;28;20208;-32
2022/04/28 06:25:08;;;;;;;6.17;3.27;;;13.80;39.60;;;;;;5051658;28;20173;-33
2022/04/28 06:27:34;;;;;;;6.70;4.78;;;13.90;40.10;;;;;;5051638;28;20190;-33
2022/04/28 06:30:00;;;;;;;6.25;4.28;;;14.00;40.20;;;;;;5051490;28;20180;-32
2022/04/28 06:32:26;;;;;;;8.15;5.07;;;14.10;40.20;;;;;;5051190;28;20173;-32
2022/04/28 06:34:52;;;;;;;6.80;4.13;;;14.30;39.90;;;;;;5052042;28;20205;-32
2022/04/28 06:37:17;;;;;;;4.87;3.80;;;14.40;39.70;;;;;;5051325;28;20201;-33
2022/04/28 06:39:43;;;;;;;5.73;4.30;;;14.60;39.40;;;;;;5051575;28;20180;-33
2022/04/28 06:42:09;;;;;;;5.43;3.80;;;14.70;39.20;;;;;;5051205;28;20196;-33
2022/04/28 06:44:36;;;;;;;7.45;4.97;;;14.90;39.30;;;;;;5051348;28;20427;-33
2022/04/28 06:47:03;;;;;;;5.80;3.95;;;15.00;38.80;;;;;;5055012;28;20196;-33
2022/04/28 06:49:29;;;;;;;9.93;4.63;;;15.20;38.30;;;;;;5054948;28;20248;-33
2022/04/28 06:51:54;;;;;;;5.83;4.60;;;15.30;38.90;;;;;;5055031;28;20284;-33
2022/04/28 06:54:20;;;;;;;10.87;4.27;;;15.50;39.10;;;;;;5055145;28;20407;-33
2022/04/28 06:56:47;;;;;;;8.03;5.23;;;15.70;39.00;;;;;;5054929;28;20595;-33
2022/04/28 06:59:13;;;;;;;6.72;5.03;;;15.80;38.10;;;;;;5054759;28;20234;-33
2022/04/28 07:01:39;;;;;;;4.88;3.95;;;15.90;38.30;;;;;;5054811;28;20195;-33
2022/04/28 07:04:05;;;;;;;7.57;5.20;;;16.10;38.40;;;;;;5053818;28;20644;-33
2022/04/28 07:06:31;;;;;;;7.55;4.88;;;16.30;38.50;;;;;;5054032;28;20292;-33
2022/04/28 07:08:56;;;;;;;8.73;4.73;;;16.50;37.90;;;;;;5054572;28;20193;-33
2022/04/28 07:11:24;;;;;;;8.13;5.57;;;16.70;37.60;;;;;;5054456;28;20457;-33
2022/04/28 07:13:50;;;;;;;7.10;4.40;;;16.80;37.10;;;;;;5053418;28;20647;-33
2022/04/28 07:16:16;;;;;;;8.25;5.13;;;16.90;35.50;;;;;;5054173;28;20675;-33
2022/04/28 07:18:42;;;;;;;8.48;5.35;;;16.70;35.00;;;;;;5054546;28;20209;-33
2022/04/28 07:21:08;;;;;;;6.40;4.70;;;16.50;35.30;;;;;;5054282;28;20178;-33
2022/04/28 07:23:34;;;;;;;5.77;5.00;;;16.50;36.30;;;;;;5054268;28;20169;-33
2022/04/28 07:25:59;;;;;;;6.67;5.47;;;16.50;36.70;;;;;;5054453;28;20178;-33
2022/04/28 07:28:25;;;;;;;7.53;5.27;;;16.60;36.80;;;;;;5054160;28;20663;-33
2022/04/28 07:30:51;;;;;;;8.90;5.07;;;16.60;36.80;;;;;;5053821;28;20880;-33
2022/04/28 07:33:16;;;;;;;7.17;4.80;;;16.70;36.50;;;;;;5054160;28;20622;-33
2022/04/28 07:35:42;;;;;;;8.73;5.97;;;16.90;36.90;;;;;;5054059;28;20189;-33
2022/04/28 07:38:08;;;;;;;10.40;6.77;;;17.00;37.00;;;;;;5053844;28;20548;-33
2022/04/28 07:40:35;;;;;;;7.40;4.80;;;17.30;36.40;;;;;;5053815;28;20253;-33
2022/04/28 07:43:01;;;;;;;5.65;5.05;;;17.40;35.90;;;;;;5054005;28;20402;-34
2022/04/28 07:45:27;;;;;;;7.33;5.43;;;17.50;34.60;;;;;;5053954;28;20176;-33
2022/04/28 07:47:54;;;;;;;8.60;6.33;;;17.70;35.70;;;;;;5054031;28;20197;-33
2022/04/28 07:50:20;;;;;;;7.53;5.38;;;18.00;36.30;;;;;;5053719;28;20195;-33
2022/04/28 07:52:46;;;;;;;7.68;5.68;;;18.20;34.20;;;;;;5053599;28;20628;-33
2022/04/28 07:55:13;;;;;;;12.77;5.65;;;18.40;34.40;;;;;;5053639;28;20204;-33
2022/04/28 07:57:39;;;;;;;7.90;6.50;;;18.60;33.10;;;;;;5052630;28;20192;-33
2022/04/28 08:00:07;;;;;;;9.32;5.47;;;18.60;33.70;;;;;;5053511;28;20644;-33
2022/04/28 08:02:33;;;;;;;8.88;5.07;;;18.70;33.30;;;;;;5053579;28;20190;-33
2022/04/28 08:04:59;;;;;;;12.00;5.80;;;18.80;34.00;;;;;;5053716;28;20180;-33
2022/04/28 08:07:25;;;;;;;6.67;5.30;;;19.10;34.40;;;;;;5053590;28;20431;-33
2022/04/28 08:09:51;;;;;;;7.10;5.07;;;19.10;32.10;;;;;;5053364;28;20920;-33
2022/04/28 08:12:17;;;;;;;8.35;4.72;;;19.20;32.70;;;;;;5053108;28;20195;-34
2022/04/28 08:14:43;;;;;;;7.75;5.40;;;19.20;31.50;;;;;;5053504;28;20582;-33
2022/04/28 08:17:09;;;;;;;10.85;5.15;;;19.20;33.00;;;;;;5053156;28;20304;-33
2022/04/28 08:19:35;;;;;;;7.37;4.80;;;19.20;32.70;;;;;;5053448;28;20197;-34
2022/04/28 08:22:01;;;;;;;9.10;5.70;;;19.20;31.90;;;;;;5052970;28;20531;-34
2022/04/28 08:24:27;;;;;;;6.57;4.50;;;19.40;31.80;;;;;;5053236;28;20407;-34
2022/04/28 08:26:55;;;;;;;10.63;6.60;;;19.50;32.70;;;;;;5053194;28;20197;-34
2022/04/28 08:29:22;;;;;;;10.45;5.43;;;19.60;30.90;;;;;;5053205;28;20166;-34
2022/04/28 08:31:48;;;;;;;7.95;5.28;;;19.80;31.10;;;;;;5052862;28;20174;-33
2022/04/28 08:34:14;;;;;;;7.40;5.07;;;20.00;30.70;;;;;;5052928;28;20169;-33
2022/04/28 08:36:41;;;;;;;8.80;4.72;;;20.10;28.80;;;;;;5052760;28;20201;-34
2022/04/28 08:39:07;;;;;;;8.77;5.25;;;20.30;30.60;;;;;;5053049;28;20867;-33
2022/04/28 08:41:37;;;;;;;7.57;5.82;;;20.50;29.50;;;;;;5052895;28;20174;-33
2022/04/28 08:44:05;;;;;;;7.00;4.45;;;20.50;29.90;;;;;;5052819;28;20654;-33
2022/04/28 08:49:16;;;;;;;6.70;4.60;;;20.80;30.30;;;;;;5052719;28;20197;-34
2022/04/28 08:51:43;;;;;;;5.90;4.18;;;20.90;30.40;;;;;;5052336;28;20176;-34
2022/04/28 08:54:10;;;;;;;6.25;4.05;;;21.00;28.90;;;;;;5052711;28;20173;-34
2022/04/28 08:56:38;;;;;;;9.15;5.80;;;20.90;28.60;;;;;;5052625;28;20276;-34
2022/04/28 08:59:04;;;;;;;5.90;3.90;;;21.00;30.20;;;;;;5051066;28;20177;-33
2022/04/28 09:01:29;;;;;;;6.90;4.45;;;21.10;29.00;;;;;;5052007;28;20176;-34
2022/04/28 09:03:56;;;;;;;6.50;4.03;;;21.30;27.00;;;;;;5052615;28;20543;-34
2022/04/28 09:06:30;;;;;;;7.22;5.13;;;21.30;29.40;;;;;;5052307;28;20215;-34
2022/04/28 09:08:57;;;;;;;7.22;4.85;;;21.70;30.30;;;;;;5052467;28;20175;-34
2022/04/28 09:11:26;;;;;;;6.22;5.00;;;21.80;27.20;;;;;;5052109;28;20201;-34
2022/04/28 09:14:09;;;;;;;8.27;6.32;;;21.80;27.20;;;;;;5052212;28;20201;-33
2022/04/28 09:16:58;;;;;;;12.55;7.25;;;21.90;28.00;;;;;;5052049;28;20284;-34
2022/04/28 09:19:35;;;;;;;7.75;4.70;;;21.80;27.60;;;;;;5052220;28;20185;-34
2022/04/28 09:22:08;;;;;;;11.63;5.87;;;21.70;27.00;;;;;;5050499;28;20524;-34
2022/04/28 09:24:35;;;;;;;7.28;5.00;;;21.80;28.00;;;;;;5045170;28;20450;-34
2022/04/28 09:27:01;;;;;;;6.00;4.85;;;21.80;27.60;;;;;;5052043;28;20216;-34
2022/04/28 09:29:29;;;;;;;5.60;4.10;;;21.80;28.10;;;;;;5052168;28;20201;-34
2022/04/28 09:31:55;;;;;;;8.80;4.13;;;21.70;26.80;;;;;;5051756;28;20407;-34
2022/04/28 09:34:23;;;;;;;5.60;4.10;;;21.70;27.40;;;;;;5052173;28;20173;-34
2022/04/28 09:36:50;;;;;;;7.47;4.50;;;21.90;26.50;;;;;;5051704;28;20200;-34
2022/04/28 09:42:29;;;;;;;6.25;3.47;;;21.70;26.70;;;;;;5051722;28;20380;-34
2022/04/28 09:44:57;;;;;;;4.97;4.07;;;22.00;28.00;;;;;;5052006;28;20170;-34
2022/04/28 09:47:25;;;;;;;7.40;4.53;;;22.20;28.40;;;;;;5052001;28;20220;-34
2022/04/28 09:49:52;;;;;;;5.40;4.50;;;22.30;28.00;;;;;;5051807;28;20169;-34
2022/04/28 09:52:24;;;;;;;5.37;3.97;;;22.50;28.70;;;;;;5051789;28;20195;-34
2022/04/28 09:54:51;;;;;;;10.43;4.13;;;22.60;28.50;;;;;;5051736;28;20825;-34
2022/04/28 09:57:21;;;;;;;5.25;4.30;;;22.70;28.30;;;;;;5051717;28;21036;-34
2022/04/28 09:59:49;;;;;;;5.80;3.73;;;22.80;28.10;;;;;;5051547;28;20657;-34
2022/04/28 10:02:19;;;;;;;6.40;4.57;;;22.90;28.20;;;;;;5051563;28;20542;-34
2022/04/28 10:04:47;;;;;;;6.53;5.10;;;22.90;27.60;;;;;;5051671;28;20427;-33
2022/04/28 10:07:14;;;;;;;6.83;4.07;;;22.90;27.70;;;;;;5051813;28;20438;-34
2022/04/28 10:09:43;;;;;;;6.10;4.73;;;22.90;27.50;;;;;;5051606;28;20419;-34
2022/04/28 10:12:09;;;;;;;6.73;5.00;;;22.80;27.40;;;;;;5051302;28;20404;-34
2022/04/28 10:14:42;;;;;;;6.27;4.97;;;22.90;26.90;;;;;;5051523;28;20403;-34
2022/04/28 10:17:18;;;;;;;6.73;4.80;;;23.00;26.80;;;;;;5033603;28;20785;-34
2022/04/28 10:19:50;;;;;;;9.90;4.77;;;23.10;27.10;;;;;;5051693;28;20407;-34
2022/04/28 10:22:20;;;;;;;6.97;5.27;;;23.10;25.60;;;;;;5055339;28;20494;-34
2022/04/28 10:33:19;;;;;;;5.37;4.87;;;23.60;25.90;;;;;;5055278;28;20509;-34
2022/04/28 10:35:53;;;;;;;6.73;4.40;;;23.90;26.20;;;;;;5055341;28;20544;-34
2022/04/28 10:38:22;;;;;;;4.50;3.77;;;24.00;24.00;;;;;;5055412;28;20432;-34
2022/04/28 10:40:58;;;;;;;6.50;4.47;;;24.10;26.00;;;;;;5054965;28;20556;-34
2022/04/28 10:43:43;;;;;;;8.47;5.00;;;24.30;23.10;;;;;;5054972;28;20407;-34
2022/04/28 10:46:09;;;;;;;6.20;5.07;;;24.50;25.60;;;;;;5055005;28;20411;-34
2022/04/28 10:48:42;;;;;;;6.37;4.10;;;24.70;23.70;;;;;;5055028;28;21003;-34
2022/04/28 10:51:19;;;;;;;5.27;3.53;;;24.70;20.60;;;;;;5054857;28;20169;-34
2022/04/28 10:54:10;;;;;;;5.57;4.40;;;24.60;22.30;;;;;;5054923;28;20770;-34
2022/04/28 10:56:42;;;;;;;6.33;4.43;;;24.50;21.50;;;;;;5054776;28;20549;-34
2022/04/28 10:59:37;;;;;;;5.07;4.17;;;24.50;23.80;;;;;;5055096;28;20400;-34
2022/04/28 11:02:14;;;;;;;6.30;4.70;;;24.80;24.70;;;;;;5033355;28;20446;-34
2022/04/28 11:04:52;;;;;;;7.50;4.70;;;24.80;22.50;;;;;;5054755;28;20395;-34
2022/04/28 11:07:21;;;;;;;4.70;3.83;;;24.80;22.70;;;;;;5054732;28;20797;-34
2022/04/28 11:09:57;;;;;;;6.87;4.90;;;24.80;20.00;;;;;;5054585;28;20502;-34
2022/04/28 11:12:25;;;;;;;7.13;5.07;;;24.80;23.30;;;;;;5054580;28;20395;-34
2022/04/28 11:14:59;;;;;;;7.00;5.10;;;24.80;20.80;;;;;;5054320;28;20856;-34
2022/04/28 11:17:30;;;;;;;7.83;5.00;;;24.70;22.90;;;;;;5054374;28;20426;-34
2022/04/28 11:19:59;;;;;;;5.10;4.60;;;24.80;21.60;;;;;;5054548;28;20408;-34
2022/04/28 11:22:27;;;;;;;7.43;4.97;;;24.80;23.00;;;;;;5054205;28;20404;-34
2022/04/28 11:24:52;;;;;;;7.43;5.27;;;25.00;24.10;;;;;;5053174;28;20419;-34
2022/04/28 11:27:23;;;;;;;7.70;4.90;;;25.00;22.70;;;;;;5053645;28;20452;-34
2022/04/28 11:29:50;;;;;;;8.73;5.80;;;25.10;22.00;;;;;;5054210;28;20216;-34
2022/04/28 11:32:16;;;;;;;5.17;4.07;;;25.00;23.70;;;;;;5054259;28;20438;-34
2022/04/28 11:34:44;;;;;;;9.70;5.90;;;25.10;23.30;;;;;;5054274;28;20419;-34
2022/04/28 11:37:17;;;;;;;8.13;5.90;;;25.20;20.60;;;;;;5053963;28;20454;-35
2022/04/28 11:39:44;;;;;;;7.10;5.67;;;24.70;21.20;;;;;;5054032;28;20403;-34
2022/04/28 11:42:12;;;;;;;6.23;5.00;;;24.50;23.30;;;;;;5053788;28;20414;-34
2022/04/28 11:45:06;;;;;;;6.10;5.10;;;24.60;22.90;;;;;;5053989;28;20412;-34
2022/04/28 11:47:41;;;;;;;5.80;5.20;;;24.30;22.50;;;;;;5050124;28;20436;-34
2022/04/28 11:50:07;;;;;;;7.83;5.70;;;24.40;21.40;;;;;;5053799;28;20376;-34
2022/04/28 11:52:34;;;;;;;8.17;6.13;;;24.00;21.30;;;;;;5053108;28;20416;-34
2022/04/28 11:55:08;;;;;;;8.73;6.50;;;23.60;22.60;;;;;;5053886;28;20534;-34
2022/04/28 11:57:36;;;;;;;9.80;5.97;;;23.60;24.10;;;;;;5053705;28;20428;-34
2022/04/28 12:00:05;;;;;;;10.10;6.40;;;23.60;24.90;;;;;;5053619;28;20901;-34
2022/04/28 12:02:36;;;;;;;9.47;6.03;;;23.80;23.90;;;;;;5035427;28;20514;-34
2022/04/28 12:05:19;;;;;;;9.07;4.47;;;24.00;25.10;;;;;;5053570;28;20411;-34
2022/04/28 12:07:51;;;;;;;8.33;5.13;;;24.30;25.30;;;;;;5053525;28;20424;-34
2022/04/28 12:16:15;;;;;;;5.50;4.80;;;24.40;23.40;;;;;;5053518;28;20537;-34
2022/04/28 12:21:38;;;;;;;7.00;5.37;;;24.30;24.70;;;;;;5053007;28;20379;-34
2022/04/28 12:24:12;;;;;;;8.90;5.37;;;24.50;25.10;;;;;;5053296;28;20446;-35
2022/04/28 12:26:42;;;;;;;7.20;5.80;;;24.80;24.60;;;;;;5053148;28;20432;-35
2022/04/28 12:29:09;;;;;;;6.37;4.40;;;25.10;22.60;;;;;;5053277;28;20400;-35
2022/04/28 12:31:35;;;;;;;7.17;4.70;;;25.30;23.80;;;;;;5052976;28;20486;-35
2022/04/28 12:34:22;;;;;;;5.63;4.70;;;25.70;23.60;;;;;;5053220;28;20443;-35
2022/04/28 12:37:06;;;;;;;5.00;4.17;;;25.90;22.90;;;;;;5052734;28;20578;-34
2022/04/28 12:39:52;;;;;;;6.03;5.10;;;25.90;22.40;;;;;;5052954;28;20483;-35
2022/04/28 12:42:19;;;;;;;6.70;4.43;;;25.80;23.10;;;;;;5052502;28;20500;-34
2022/04/28 12:44:45;;;;;;;6.80;4.60;;;25.90;23.70;;;;;;5052278;28;20849;-34
2022/04/28 12:47:12;;;;;;;7.87;5.93;;;25.70;20.40;;;;;;5052702;28;20428;-34
2022/04/28 12:49:45;;;;;;;7.63;4.50;;;25.40;22.10;;;;;;5052741;28;20404;-34
2022/04/28 12:52:26;;;;;;;9.63;6.40;;;25.10;22.00;;;;;;5052664;28;20403;-34
2022/04/28 12:55:01;;;;;;;7.67;4.97;;;24.90;22.70;;;;;;5052447;28;20483;-34
2022/04/28 12:57:30;;;;;;;6.57;5.40;;;24.60;22.70;;;;;;5052525;28;20824;-34
2022/04/28 12:59:56;;;;;;;8.17;5.27;;;24.40;23.20;;;;;;5052661;28;20403;-34
2022/04/28 13:02:30;;;;;;;7.60;4.80;;;24.20;23.20;;;;;;5052213;28;20400;-34
2022/04/28 13:05:13;;;;;;;8.60;6.50;;;24.00;21.80;;;;;;5052443;28;20414;-34
2022/04/28 13:07:43;;;;;;;9.07;6.40;;;23.70;23.20;;;;;;5052589;28;20427;-34
2022/04/28 13:10:12;;;;;;;8.17;5.43;;;23.50;23.70;;;;;;5052283;28;20408;-34
2022/04/28 13:12:38;;;;;;;6.70;4.77;;;23.50;24.40;;;;;;5052167;28;20465;-34
2022/04/28 13:15:05;;;;;;;6.00;4.30;;;23.60;22.10;;;;;;5052369;28;20451;-34
2022/04/28 13:17:31;;;;;;;5.50;3.93;;;23.80;22.10;;;;;;5052177;28;20315;-34
2022/04/28 13:19:57;;;;;;;6.60;5.10;;;24.00;21.90;;;;;;5052140;28;20461;-34
2022/04/28 13:22:23;;;;;;;9.90;4.30;;;24.20;22.10;;;;;;5052201;28;20408;-34
2022/04/28 13:24:49;;;;;;;7.33;4.10;;;24.20;22.40;;;;;;5052300;28;20766;-34
2022/04/28 13:27:16;;;;;;;5.93;4.53;;;24.40;22.50;;;;;;5051957;28;20419;-35
2022/04/28 13:29:42;;;;;;;5.33;4.07;;;24.70;22.90;;;;;;5052058;28;20557;-34